Nearby METAR Reports

 

KADS - Dallas/Addison, Texas, USA
Distance from station: SSW 10mi, 16km
Updated: Fri, 20-Oct-2017 12:47pm CDT
Overcast
Overcast
 Wind from SE
Wind: SE 14 mph , 22 km/h, Gust: 21 mph , 33 km/h
Temperature: 72°F , 22°C
Dew Point: 66°F , 19°C
Humidity: 83%
Barometer: 30.06 inHg , 1017.9 hPa
Clouds: Overcast
Visibility: 13 miles , 21 km
Cloud details: Partly cloudy 1800 ft
Overcast 6000 ft
2017/10/20 17:47 KADS 201747Z 14012G18KT 13SM SCT018 OVC060 22/19 A3006
KTKI - Mckinney, Texas, USA
Distance from station: ENE 11mi, 18km
Updated: Fri, 20-Oct-2017 12:53pm CDT
Overcast
Overcast
 Wind from S
Wind: S 15 mph , 24 km/h
Temperature: 75°F , 24°C
Dew Point: 68°F , 20°C
Humidity: 78%
Barometer: 30.05 inHg , 1017.6 hPa
Clouds: Overcast
Visibility: 10 miles , 16 km
Cloud details: Partly cloudy 2200 ft
Mostly cloudy 4300 ft
Overcast 6500 ft
2017/10/20 17:53 KTKI 201753Z 17013KT 10SM SCT022 BKN043 OVC065 24/20 A3005 RMK AO2 RAB34E45 SLP176 P0000 60000 T02440200 10244 20144 56015
 
KDAL - Dallas/Love Fld, Texas, USA
Distance from station: SSW 18mi, 30km
Updated: Fri, 20-Oct-2017 12:53pm CDT
Overcast
Overcast
 Wind from SE
Wind: SE 14 mph , 22 km/h
Temperature: 73°F , 23°C
Dew Point: 64°F , 18°C
Humidity: 74%
Barometer: 30.05 inHg , 1017.6 hPa
Clouds: Overcast
Visibility: 9 miles , 14 km
Cloud details: Mostly cloudy 2300 ft
Overcast 6500 ft
2017/10/20 17:53 KDAL 201753Z 13012KT 9SM BKN023 OVC065 23/18 A3005 RMK AO2 RAB04E45 SLP169 SHRA N NW AND DSNT SE-SW P0000 60000 T02330183 10239 20183 56021
KDFW - Dallas/Ft Worth, Texas, USA
Distance from station: SW 21mi, 34km
Updated: Fri, 20-Oct-2017 12:53pm CDT
Mostly cloudy
Mostly cloudy
 Wind from SSE
Wind: SSE 16 mph , 26 km/h
Temperature: 73°F , 23°C
Dew Point: 68°F , 20°C
Humidity: 83%
Barometer: 30.03 inHg , 1016.9 hPa
Clouds: Mostly cloudy
Visibility: 7 miles , 11 km
Cloud details: Partly cloudy 2000 ft
Mostly cloudy 5000 ft
Mostly cloudy 8000 ft
Mostly cloudy 25000 ft
2017/10/20 17:53 KDFW 201753Z 15014KT 7SM SCT020 BKN050 BKN080 BKN250 23/20 A3003 RMK AO2 RAB27E53 PRESFR SLP161 SHRA N AND S P0000 60000 T02330200 10256 20167 58025
 
KF46 - Rockwall, Texas, USA
Distance from station: ESE 22mi, 35km
Updated: Fri, 20-Oct-2017 12:55pm CDT
Overcast
Overcast
 Wind from S
Wind: S 15 mph , 24 km/h, Gust: 23 mph , 37 km/h
Temperature: 75°F , 24°C
Dew Point: 66°F , 19°C
Humidity: 74%
Barometer: 30.06 inHg , 1017.9 hPa
Clouds: Overcast
Visibility: 10 miles , 16 km
Cloud details: Overcast 2100 ft
2017/10/20 17:55 KF46 201755Z AUTO 17013G20KT 10SM OVC021 24/19 A3006 RMK AO2 T02410187 10249 20156
KDTO - Denton, Texas, USA
Distance from station: WNW 27mi, 43km
Updated: Fri, 20-Oct-2017 12:53pm CDT
Mostly cloudy
Mostly cloudy
 Wind from SSE
Wind: SSE 18 mph , 30 km/h, Gust: 23 mph , 37 km/h
Temperature: 79°F , 26°C
Dew Point: 64°F , 18°C
Humidity: 61%
Barometer: 30.03 inHg , 1016.9 hPa
Clouds: Mostly cloudy
Visibility: 10 miles , 16 km
Cloud details: Few Clouds 3000 ft
Mostly cloudy 7000 ft
2017/10/20 17:53 KDTO 201753Z 16016G20KT 10SM FEW030 BKN070 26/18 A3003 RMK AO2 SLP160 T02560183 10261 20144 58025
 
KHQZ - Mesquite, Texas, USA
Distance from station: SSE 28mi, 44km
Updated: Fri, 20-Oct-2017 12:50pm CDT
Overcast
Overcast
 Wind from SE
Wind: SE 9 mph , 15 km/h
Temperature: 75°F , 24°C
Dew Point: 64°F , 18°C
Humidity: 69%
Barometer: 30.06 inHg , 1017.9 hPa
Clouds: Overcast
Visibility: 10 miles , 16 km
Cloud details: Overcast 1800 ft
2017/10/20 17:50 KHQZ 201750Z 13008KT 10SM OVC018 24/18 A3006
KRBD - Dallas/Redbird, Texas, USA
Distance from station: SSW 30mi, 48km
Updated: Fri, 20-Oct-2017 12:53pm CDT
Light rain, Overcast
Light rain, Overcast
 Wind from SSE
Wind: SSE 10 mph , 17 km/h
Temperature: 75°F , 24°C
Dew Point: 66°F , 19°C
Humidity: 74%
Barometer: 30.04 inHg , 1017.3 hPa
Summary: Light rain
Clouds: Overcast
Visibility: 10 miles , 16 km
Cloud details: Mostly cloudy 1600 ft
Overcast 8000 ft
2017/10/20 17:53 KRBD 201753Z 15009KT 10SM -RA BKN016 OVC080 24/19 A3004 RMK AO2 RAB53 PRESFR SLP167 P0000 60000 T02390194 10239 20161 58019
 
KGPM - Grand Prairie, Texas, USA
Distance from station: SSW 33mi, 53km
Updated: Fri, 20-Oct-2017 12:50pm CDT
Overcast
Overcast
 Wind from SE
Wind: SE 8 mph , 13 km/h
Temperature: 72°F , 22°C
Dew Point: 63°F , 17°C
Humidity: 73%
Barometer: 30.10 inHg , 1019.3 hPa
Clouds: Overcast
Visibility: 10 miles , 16 km
Cloud details: Mostly cloudy 1400 ft
Overcast 1900 ft
2017/10/20 17:50 KGPM 201750Z 13007KT 10SM BKN014 OVC019 22/17 A3010
KAFW - Ft Worth/Allianc, Texas, USA
Distance from station: WSW 34mi, 55km
Updated: Fri, 20-Oct-2017 12:53pm CDT
Mostly cloudy
Mostly cloudy
 Wind from SSE
Wind: SSE 9 mph , 15 km/h, Gust: 18 mph , 30 km/h
Temperature: 77°F , 25°C
Dew Point: 64°F , 18°C
Humidity: 65%
Barometer: 30.03 inHg , 1016.9 hPa
Clouds: Mostly cloudy
Visibility: 10 miles , 16 km
Cloud details: Few Clouds 3500 ft
Partly cloudy 6500 ft
Mostly cloudy 9000 ft
2017/10/20 17:53 KAFW 201753Z 15008G16KT 10SM FEW035 SCT065 BKN090 25/18 A3003 RMK AO2 SLP159 T02500178 10261 20139 58021
 
KLNC - Lancaster, Texas, USA
Distance from station: S 36mi, 58km
Updated: Fri, 20-Oct-2017 12:55pm CDT
Overcast
Overcast
 Wind from SSE
Wind: SSE 8 mph , 13 km/h
Temperature: 73°F , 23°C
Dew Point: 64°F , 18°C
Humidity: 74%
Barometer: 30.07 inHg , 1018.3 hPa
Clouds: Overcast
Visibility: 10 miles , 16 km
Cloud details: Overcast 1600 ft
2017/10/20 17:55 KLNC 201755Z AUTO 15007KT 10SM OVC016 23/18 A3007 RMK AO2 T02300183 10233 20151
KGKY - Arlington, Texas, USA
Distance from station: SSW 36mi, 59km
Updated: Fri, 20-Oct-2017 1:03pm CDT
Overcast
Overcast
 Wind from SSE
Wind: SSE 9 mph , 15 km/h
Temperature: 72°F , 22°C
Dew Point: 70°F , 21°C
Humidity: 94%
Barometer: 30.04 inHg , 1017.3 hPa
Clouds: Overcast
Visibility: 9 miles , 14 km
Cloud details: Partly cloudy 1500 ft
Mostly cloudy 3100 ft
Overcast 6000 ft
2017/10/20 18:03 KGKY 201803Z 15008KT 9SM SCT015 BKN031 OVC060 22/21 A3004 RMK AO2 RAE01 P0000 T02170206
 
KTRL - Terrell, Texas, USA
Distance from station: SE 39mi, 63km
Updated: Fri, 20-Oct-2017 12:53pm CDT
Mostly cloudy
Mostly cloudy
 Wind from SSE
Wind: SSE 10 mph , 17 km/h
Temperature: 79°F , 26°C
Dew Point: 64°F , 18°C
Humidity: 61%
Barometer: 30.06 inHg , 1017.9 hPa
Clouds: Mostly cloudy
Visibility: 10 miles , 16 km
Cloud details: Mostly cloudy 2300 ft
2017/10/20 17:53 KTRL 201753Z AUTO 15009KT 10SM BKN023 26/18 A3006 RMK AO2 SLP175 T02560183 10256 20172 58018
KGVT - Greenville/Major, Texas, USA
Distance from station: E 40mi, 64km
Updated: Fri, 20-Oct-2017 12:50pm CDT
Partly cloudy
Partly cloudy
 Wind from SSE
Wind: SSE 9 mph , 15 km/h
Temperature: 81°F , 27°C
Heat Index: 83°F , 28°C
Dew Point: 64°F , 18°C
Humidity: 58%
Barometer: 30.07 inHg , 1018.3 hPa
Clouds: Partly cloudy
Visibility: 10 miles , 16 km
Cloud details: Partly cloudy 5500 ft
2017/10/20 17:50 KGVT 201750Z AUTO 15008KT 10SM SCT055 27/18 A3007 RMK AO2
 
KFTW - Fort Worth, Texas, USA
Distance from station: WSW 40mi, 65km
Updated: Fri, 20-Oct-2017 12:53pm CDT
Overcast
Overcast
 Wind from SE
Wind: SE 14 mph , 22 km/h
Temperature: 75°F , 24°C
Dew Point: 64°F , 18°C
Humidity: 69%
Barometer: 30.03 inHg , 1016.9 hPa
Clouds: Overcast
Visibility: 10 miles , 16 km
Cloud details: Overcast 1900 ft
2017/10/20 17:53 KFTW 201753Z 13012KT 10SM OVC019 24/18 A3003 RMK AO2 SLP163 60000 T02440183 10256 20172 58018
KGYI - Sherman/Denison, Texas, USA
Distance from station: N 43mi, 69km
Updated: Fri, 20-Oct-2017 12:55pm CDT
Partly cloudy
Partly cloudy
 Wind from SSE
Wind: SSE 17 mph , 28 km/h, Gust: 21 mph , 33 km/h
Temperature: 79°F , 26°C
Dew Point: 64°F , 18°C
Humidity: 61%
Barometer: 30.05 inHg , 1017.6 hPa
Clouds: Partly cloudy
Visibility: 10 miles , 16 km
Cloud details: Partly cloudy 3000 ft
Partly cloudy 7000 ft
2017/10/20 17:55 KGYI 201755Z AUTO 15015G18KT 10SM SCT030 SCT070 26/18 A3005 RMK AO2 T02640178 10266 20142
 
KNFW - Fort Worth Nas, Texas, USA
Distance from station: WSW 45mi, 73km
Updated: Fri, 20-Oct-2017 12:52pm CDT
Mostly cloudy
Mostly cloudy
 Wind from SSE
Wind: SSE 15 mph , 24 km/h
Temperature: 75°F , 24°C
Dew Point: 63°F , 17°C
Humidity: 65%
Barometer: 30.04 inHg , 1017.3 hPa
Clouds: Mostly cloudy
Visibility: 10 miles , 16 km
Cloud details: Partly cloudy 2100 ft
Mostly cloudy 8000 ft
Mostly cloudy 25000 ft
2017/10/20 17:52 KNFW 201752Z 15013KT 10SM SCT021 BKN080 BKN250 24/17 A3004 RMK AO2 SLP156 60000 T02440167 10250 20172 58019 $
KGLE - Gainesville, Texas, USA
Distance from station: NW 46mi, 74km
Updated: Fri, 20-Oct-2017 12:55pm CDT
Overcast
Overcast
 Wind from SE
Wind: SE 17 mph , 28 km/h, Gust: 24 mph , 39 km/h
Temperature: 77°F , 25°C
Dew Point: 61°F , 16°C
Humidity: 57%
Barometer: 30.04 inHg , 1017.3 hPa
Clouds: Overcast
Visibility: 10 miles , 16 km
Cloud details: Mostly cloudy 7000 ft
Overcast 8000 ft
2017/10/20 17:55 KGLE 201755Z AUTO 14015G21KT 10SM BKN070 OVC080 25/16 A3004 RMK AO2 T02470164 10252 20138
 
KJWY - Midlothian/Wax, Texas, USA
Distance from station: SSW 46mi, 74km
Updated: Fri, 20-Oct-2017 12:55pm CDT
Overcast
Overcast
 Wind from SE
Wind: SE 3 mph , 6 km/h
Temperature: 72°F , 22°C
Dew Point: 68°F , 20°C
Humidity: 88%
Barometer: 30.06 inHg , 1017.9 hPa
Clouds: Overcast
Visibility: 7 miles , 11 km
Cloud details: Mostly cloudy 1400 ft
Overcast 2900 ft
2017/10/20 17:55 KJWY 201755Z AUTO 13003KT 7SM BKN014 OVC029 22/20 A3006 RMK AO2 T02180203 10218 20153
KFWS - Fort Worth/88d, Texas, USA
Distance from station: SW 49mi, 79km
Updated: Fri, 20-Oct-2017 12:48pm CDT
Overcast
Overcast
 Wind from SE
Wind: SE 14 mph , 22 km/h, Gust: 21 mph , 33 km/h
Temperature: 72°F , 22°C
Dew Point: 61°F , 16°C
Humidity: 69%
Barometer: 30.07 inHg , 1018.3 hPa
Clouds: Overcast
Visibility: 10 miles , 16 km
Cloud details: Overcast 1700 ft
2017/10/20 17:48 KFWS 201748Z 13012G18KT 10SM OVC017 22/16 A3007